ADDS METAR Data INFO
IDs: Format: Raw Decoded Include TAF

Data at: 1846 UTC 17 Oct 2017

KISQ 171836Z AUTO 20004KT 10SM CLR 16/06 A2997 RMK AO2 T01630063
KISQ 171815Z AUTO 19007KT 10SM CLR 16/06 A2998 RMK AO2 T01570057
KISQ 171755Z AUTO 20007KT 10SM CLR 17/03 A2998 RMK AO2 T01680030 10169 20090
KISQ 171735Z AUTO 19006KT 10SM CLR 16/03 A2998 RMK AO2 T01610029
KISQ 171715Z AUTO 16006KT 10SM CLR 17/03 A2998 RMK AO2 T01680026
KISQ 171655Z AUTO 20004KT 10SM CLR 16/02 A2998 RMK AO2 T01620015
KISQ 171635Z AUTO 00000KT 10SM CLR 16/01 A2998 RMK AO2 T01620008
KISQ 171615Z AUTO 27005KT 10SM CLR 16/00 A2998 RMK AO2 T01580004
KISQ 171555Z AUTO 30004KT 10SM CLR 15/00 A2998 RMK AO2 T01510004
KISQ 171535Z AUTO 29006KT 10SM CLR 15/00 A2998 RMK AO2 T01450004
KISQ 171515Z AUTO 28006KT 10SM CLR 14/00 A2997 RMK AO2 T01400004
KISQ 171455Z AUTO 30007KT 10SM CLR 14/00 A2996 RMK AO2 T01370003
KISQ 171435Z AUTO 26004KT 10SM CLR 13/01 A2995 RMK AO2 T01260006
KISQ 171415Z AUTO 28007KT 10SM CLR 12/00 A2995 RMK AO2 T01210004
KISQ 171355Z AUTO 28009G16KT 10SM CLR 11/00 A2995 RMK AO2 T01130004
KISQ 171335Z AUTO 27008KT 10SM CLR 11/01 A2995 RMK AO2 T01090008
KISQ 171315Z AUTO 27008KT 10SM CLR 10/01 A2995 RMK AO2 T01020005
KISQ 171255Z AUTO 27009KT 10SM CLR 10/01 A2994 RMK AO2 T01000005
KISQ 171235Z AUTO 26006KT 10SM CLR 10/01 A2993 RMK AO2 T00960008
KISQ 171215Z AUTO 26004KT 10SM CLR 09/01 A2993 RMK AO2 T00910010
KISQ 171155Z AUTO 25005KT 10SM CLR 09/01 A2993 RMK AO2 T00940010 10125 20090
KISQ 171135Z AUTO 25003KT 10SM CLR 09/02 A2993 RMK AO2 T00900016
KISQ 171115Z AUTO 00000KT 10SM CLR 09/02 A2992 RMK AO2 T00940015
KISQ 171055Z AUTO 24003KT 10SM CLR 10/02 A2992 RMK AO2 T00970015
KISQ 171035Z AUTO 24005KT 10SM CLR 11/01 A2992 RMK AO2 T01050012
KISQ 171015Z AUTO 25006KT 10SM CLR 11/02 A2992 RMK AO2 T01090015
KISQ 170955Z AUTO 24008KT 10SM CLR 12/02 A2992 RMK AO2 T01150017
KISQ 170935Z AUTO 26004KT 10SM CLR 12/03 A2992 RMK AO2 T01170031
KISQ 170915Z AUTO 23006KT 10SM CLR 12/06 A2992 RMK AO2 T01160060
KISQ 170855Z AUTO 22006KT 10SM CLR 12/07 A2992 RMK AO2 T01200069
KISQ 170835Z AUTO 22007G15KT 10SM SCT110 12/06 A2992 RMK AO2 T01210064
KISQ 170815Z AUTO 22009G14KT 10SM OVC110 12/06 A2993 RMK AO2 T01230064
KISQ 170755Z AUTO 23007G15KT 10SM OVC110 13/06 A2994 RMK AO2 T01250061
KISQ 170735Z AUTO 22006G15KT 10SM OVC110 12/06 A2995 RMK AO2 T01230063
KISQ 170715Z AUTO 23006KT 10SM OVC110 12/06 A2995 RMK AO2 T01220060
KISQ 170655Z AUTO 23005KT 10SM OVC110 12/06 A2996 RMK AO2 T01220055
KISQ 170635Z AUTO 20006KT 10SM OVC110 12/06 A2997 RMK AO2 T01200062
KISQ 170615Z AUTO 20006KT 10SM OVC110 12/07 A2998 RMK AO2 T01150073
KISQ 170555Z AUTO 21007KT 10SM OVC110 12/08 A2999 RMK AO2 T01150076 10122 20114
KISQ 170535Z AUTO 21007KT 10SM OVC110 12/06 A2999 RMK AO2 T01150064
KISQ 170515Z AUTO 21008G14KT 10SM OVC110 12/05 A3000 RMK AO2 T01150052
KISQ 170455Z AUTO 22008G16KT 10SM OVC110 12/04 A3001 RMK AO2 T01200038
KISQ 170435Z AUTO 22012G18KT 10SM OVC110 12/03 A3001 RMK AO2 T01220030
KISQ 170415Z AUTO 22011G18KT 10SM BKN110 12/03 A3001 RMK AO2 T01210028
KISQ 170355Z AUTO 22007G20KT 10SM CLR 12/02 A3002 RMK AO2 T01180024 401291028
KISQ 170335Z AUTO 22009G15KT 10SM CLR 12/03 A3002 RMK AO2 T01190030
KISQ 170315Z AUTO 22009G14KT 10SM CLR 12/03 A3003 RMK AO2 T01200033
KISQ 170255Z AUTO 22009G16KT 10SM CLR 12/03 A3003 RMK AO2 T01180033
KISQ 170235Z AUTO 22010G17KT 10SM CLR 12/03 A3003 RMK AO2 T01190031
KISQ 170215Z AUTO 22009G17KT 10SM CLR 12/04 A3004 RMK AO2 T01180036
KISQ 170155Z AUTO 21010G19KT 10SM CLR 12/04 A3003 RMK AO2 T01180035
KISQ 170135Z AUTO 22011G16KT 10SM CLR 12/03 A3004 RMK AO2 T01160034
KISQ 170115Z AUTO 22010G21KT 10SM CLR 12/03 A3005 RMK AO2 T01170032
KISQ 170055Z AUTO 21011G20KT 10SM CLR 12/03 A3005 RMK AO2 T01170034
KISQ 170035Z AUTO 22010G17KT 10SM CLR 12/03 A3006 RMK AO2 T01150028
KISQ 170015Z AUTO 22011G17KT 10SM CLR 12/03 A3006 RMK AO2 T01150027
KISQ 162355Z AUTO 21010G18KT 10SM CLR 12/03 A3006 RMK AO2 T01150029 10129 20107
KISQ 162335Z AUTO 21011G16KT 10SM CLR 11/03 A3007 RMK AO2 T01120025
KISQ 162315Z AUTO 21009G15KT 10SM CLR 11/03 A3008 RMK AO2 T01100029
KISQ 162255Z AUTO 21006G15KT 10SM CLR 11/02 A3009 RMK AO2 T01100019
KISQ 162235Z AUTO 22007KT 10SM CLR 11/02 A3010 RMK AO2 T01080019
KISQ 162215Z AUTO 22005KT 10SM CLR 11/01 A3010 RMK AO2 T01080011
KISQ 162155Z AUTO 22009KT 10SM CLR 11/01 A3010 RMK AO2 T01100013
KISQ 162135Z AUTO 21009KT 10SM CLR 11/01 A3011 RMK AO2 T01100005
KISQ 162115Z AUTO 24005KT 10SM CLR 11/00 A3012 RMK AO2 T01131002
KISQ 162055Z AUTO 22007KT 10SM CLR 11/00 A3012 RMK AO2 T01121004
KISQ 162035Z AUTO 23005KT 10SM SCT044 12/M02 A3013 RMK AO2 T01171019
KISQ 162015Z AUTO 23006KT 10SM SCT044 13/M02 A3012 RMK AO2 T01271021
KISQ 161955Z AUTO 21009KT 10SM CLR 13/M02 A3012 RMK AO2 T01251016
KISQ 161935Z AUTO 21008KT 10SM CLR 13/M02 A3012 RMK AO2 T01261016
KISQ 161915Z AUTO 21008KT 10SM CLR 13/M03 A3013 RMK AO2 T01261027
KISQ 161855Z AUTO 23007KT 10SM CLR 13/M03 A3013 RMK AO2 T01251029
KISQ 161835Z AUTO 22009G14KT 10SM CLR 12/M03 A3014 RMK AO2 T01231034
KISQ 161815Z AUTO 22008KT 10SM CLR 12/M03 A3015 RMK AO2 T01211033
KISQ 161755Z AUTO 22009G14KT 10SM CLR 12/M03 A3015 RMK AO2 T01201026 10122 21026
KISQ 161735Z AUTO 24008G15KT 10SM CLR 12/M04 A3016 RMK AO2 T01151036
KISQ 161715Z AUTO 22010G15KT 10SM CLR 12/M04 A3017 RMK AO2 T01161039
KISQ 161655Z AUTO 22010G15KT 10SM CLR 12/M03 A3018 RMK AO2 T01171034
KISQ 161635Z AUTO 23004KT 10SM CLR 11/M03 A3018 RMK AO2 T01131030
KISQ 161615Z AUTO 22007KT 10SM CLR 11/M03 A3018 RMK AO2 T01081029
KISQ 161555Z AUTO 23005KT 10SM CLR 10/M02 A3018 RMK AO2 T01031023
KISQ 161535Z AUTO 27005KT 10SM CLR 11/M02 A3019 RMK AO2 T01071025
KISQ 161515Z AUTO 27005KT 10SM CLR 10/M01 A3019 RMK AO2 T00981007
KISQ 161455Z AUTO 28006KT 10SM CLR 09/02 A3019 RMK AO2 T00940020
KISQ 161435Z AUTO 26004KT 10SM CLR 09/03 A3019 RMK AO2 T00880029
KISQ 161415Z AUTO 26004KT 10SM CLR 08/02 A3019 RMK AO2 T00750022
KISQ 161355Z AUTO 26004KT 10SM CLR 07/02 A3019 RMK AO2 T00660022
KISQ 161335Z AUTO 26003KT 10SM CLR 06/02 A3019 RMK AO2 T00620018
KISQ 161315Z AUTO 28004KT 10SM CLR 05/02 A3019 RMK AO2 T00500020
KISQ 161255Z AUTO 28004KT 10SM CLR 02/00 A3019 RMK AO2 T00241002
KISQ 161235Z AUTO 27003KT 10SM CLR 04/01 A3019 RMK AO2 T00370008
KISQ 161215Z AUTO 00000KT 10SM CLR 00/M03 A3018 RMK AO2 T10041032
KISQ 161155Z AUTO 00000KT 10SM CLR M03/M06 A3018 RMK AO2 70005 T10271056 11001 21028
KISQ 161135Z AUTO 00000KT 10SM CLR M02/M05 A3018 RMK AO2 T10231051
KISQ 161115Z AUTO 00000KT 10SM CLR M02/M05 A3019 RMK AO2 T10201048
KISQ 161055Z AUTO 00000KT 10SM SCT038 M02/M05 A3019 RMK AO2 T10201047
KISQ 161035Z AUTO 00000KT 5SM HZ BKN038 M02/M05 A3019 RMK AO2 T10191046
KISQ 161015Z AUTO 00000KT 10SM CLR M02/M04 A3018 RMK AO2 T10181045
KISQ 160955Z AUTO 00000KT 10SM CLR M02/M05 A3018 RMK AO2 T10201048
KISQ 160935Z AUTO 00000KT 10SM SCT036 M02/M05 A3018 RMK AO2 T10191046
KISQ 160915Z AUTO 00000KT 10SM SCT036 M01/M04 A3018 RMK AO2 T10091038
KISQ 160855Z AUTO 27003KT 10SM CLR M01/M04 A3018 RMK AO2 T10131041
KISQ 160835Z AUTO 28004KT 10SM CLR M02/M05 A3018 RMK AO2 T10231050
KISQ 160815Z AUTO 00000KT 10SM CLR M02/M05 A3017 RMK AO2 T10211049
KISQ 160755Z AUTO 00000KT 10SM CLR M01/M04 A3017 RMK AO2 T10121040
KISQ 160735Z AUTO 00000KT 10SM SCT120 M02/M05 A3017 RMK AO2 T10201048
KISQ 160715Z AUTO 00000KT 10SM SCT120 M01/M04 A3017 RMK AO2 T10131041
KISQ 160655Z AUTO 00000KT 10SM CLR M02/M04 A3017 RMK AO2 T10171045